createdAt,value
2017-12-28T00:00:38.461Z,15.05
2017-12-28T00:03:06.190Z,15.10
2017-12-28T00:05:33.848Z,17.00
2017-12-28T00:08:01.484Z,13.68
2017-12-28T00:10:29.109Z,12.75
2017-12-28T00:12:57.746Z,14.95
2017-12-28T00:15:25.365Z,14.45
2017-12-28T00:17:53.029Z,14.40
2017-12-28T00:20:20.657Z,15.20
2017-12-28T00:22:48.304Z,16.10
2017-12-28T00:25:16.097Z,16.17
2017-12-28T00:27:43.777Z,15.10
2017-12-28T00:30:11.461Z,16.52
2017-12-28T00:32:39.097Z,16.73
2017-12-28T00:35:06.906Z,17.62
2017-12-28T00:37:34.568Z,15.93
2017-12-28T00:40:02.184Z,15.70
2017-12-28T00:42:30.605Z,13.60
2017-12-28T00:44:58.224Z,13.25
2017-12-28T00:47:25.846Z,14.38
2017-12-28T00:49:54.261Z,13.00
2017-12-28T00:52:21.873Z,10.70
2017-12-28T00:54:49.525Z,13.35
2017-12-28T00:57:17.147Z,13.52
2017-12-28T00:59:45.541Z,11.93
2017-12-28T01:02:13.292Z,13.20
2017-12-28T01:04:40.927Z,12.05
2017-12-28T01:07:08.602Z,11.35
2017-12-28T01:09:36.231Z,12.55
2017-12-28T01:12:03.856Z,11.98
2017-12-28T01:14:32.275Z,11.30
2017-12-28T01:16:59.893Z,12.20
2017-12-28T01:19:27.735Z,10.98
2017-12-28T01:21:55.355Z,11.27
2017-12-28T01:24:23.757Z,12.00
2017-12-28T01:26:51.415Z,11.93
2017-12-28T01:29:19.025Z,11.70
2017-12-28T01:31:46.721Z,14.60
2017-12-28T01:34:14.382Z,13.48
2017-12-28T01:36:42.014Z,12.30
2017-12-28T01:39:09.695Z,12.65
2017-12-28T01:41:38.090Z,14.73
2017-12-28T01:44:05.757Z,13.02
2017-12-28T01:46:33.376Z,13.93
2017-12-28T01:49:01.014Z,14.70
2017-12-28T01:51:29.430Z,14.65
2017-12-28T01:53:57.145Z,12.05
2017-12-28T01:56:24.812Z,14.27
2017-12-28T01:58:52.433Z,13.32
2017-12-28T02:01:20.073Z,13.95
2017-12-28T02:03:47.817Z,12.07
2017-12-28T02:06:15.451Z,12.25
2017-12-28T02:08:43.878Z,14.10
2017-12-28T02:11:11.490Z,13.32
2017-12-28T02:13:39.105Z,19.50
2017-12-28T02:16:07.681Z,16.25
2017-12-28T02:18:36.214Z,13.75
2017-12-28T02:21:03.877Z,15.50
2017-12-28T02:23:31.500Z,17.05
2017-12-28T02:25:59.128Z,16.17
2017-12-28T02:28:27.016Z,17.73
2017-12-28T02:30:54.661Z,17.15
2017-12-28T02:33:22.315Z,20.00
2017-12-28T02:35:49.946Z,20.30
2017-12-28T02:38:17.716Z,21.35
2017-12-28T02:40:45.374Z,19.70
2017-12-28T02:43:13.766Z,17.80
2017-12-28T02:45:41.432Z,18.83
2017-12-28T02:48:09.081Z,18.83
2017-12-28T02:50:36.765Z,18.90
2017-12-28T02:53:04.428Z,17.90
2017-12-28T02:55:32.817Z,18.40
2017-12-28T02:58:00.469Z,18.10
2017-12-28T03:00:28.169Z,24.05
2017-12-28T03:02:55.769Z,24.45
2017-12-28T03:05:23.434Z,17.45
2017-12-28T03:07:51.065Z,21.87
2017-12-28T03:10:18.726Z,18.92
2017-12-28T03:12:46.360Z,17.52
2017-12-28T03:15:13.997Z,20.95
2017-12-28T03:17:41.655Z,20.00
2017-12-28T03:20:09.286Z,23.87
2017-12-28T03:22:37.082Z,21.35
2017-12-28T03:25:04.710Z,23.62
2017-12-28T03:27:32.328Z,24.00
2017-12-28T03:29:59.987Z,20.62
2017-12-28T03:32:27.751Z,18.42
2017-12-28T03:34:55.400Z,20.88
2017-12-28T03:37:23.026Z,20.65
2017-12-28T03:39:50.648Z,20.73
2017-12-28T03:42:18.305Z,19.73
2017-12-28T03:44:45.934Z,22.70
2017-12-28T03:47:13.725Z,21.10
2017-12-28T03:49:41.378Z,22.30
2017-12-28T03:52:09.019Z,25.33
2017-12-28T03:54:36.733Z,17.75
2017-12-28T03:57:04.365Z,22.90
2017-12-28T03:59:32.036Z,23.50
2017-12-28T04:01:59.665Z,16.27
2017-12-28T04:04:28.065Z,18.02
2017-12-28T04:06:55.717Z,14.87
2017-12-28T04:09:23.337Z,17.77
2017-12-28T04:11:50.999Z,14.55
2017-12-28T04:14:18.633Z,14.32
2017-12-28T04:16:46.269Z,16.45
2017-12-28T04:19:13.922Z,18.73
2017-12-28T04:21:41.549Z,17.75
2017-12-28T04:24:09.971Z,13.25
2017-12-28T04:26:37.727Z,18.27
2017-12-28T04:29:05.354Z,17.55
2017-12-28T04:31:33.017Z,16.92
2017-12-28T04:34:00.646Z,15.52
2017-12-28T04:36:28.308Z,19.80
2017-12-28T04:38:55.974Z,18.77
2017-12-28T04:41:23.785Z,17.52
2017-12-28T04:43:51.449Z,17.30
2017-12-28T04:46:19.068Z,17.25
2017-12-28T04:48:46.774Z,19.65
2017-12-28T04:51:14.401Z,13.00
2017-12-28T04:53:42.026Z,17.42
2017-12-28T04:56:09.673Z,19.67
2017-12-28T04:58:37.297Z,18.45
2017-12-28T05:01:04.949Z,15.13
2017-12-28T05:03:32.596Z,17.17
2017-12-28T05:06:00.218Z,18.42
2017-12-28T05:08:28.651Z,16.20
2017-12-28T05:10:56.288Z,14.65
2017-12-28T05:13:23.950Z,17.87
2017-12-28T05:15:51.583Z,15.55
2017-12-28T05:18:19.199Z,14.18
2017-12-28T05:20:47.057Z,17.45
2017-12-28T05:23:14.682Z,18.08
2017-12-28T05:25:42.329Z,19.65
2017-12-28T05:28:09.976Z,20.50
2017-12-28T05:30:37.761Z,17.65
2017-12-28T05:33:05.418Z,16.90
2017-12-28T05:35:33.032Z,17.77
2017-12-28T05:38:00.689Z,15.23
2017-12-28T05:40:28.304Z,18.17
2017-12-28T05:42:55.942Z,20.60
2017-12-28T05:45:23.856Z,18.67
2017-12-28T05:47:51.493Z,19.15
2017-12-28T05:50:19.156Z,18.95
2017-12-28T05:52:47.231Z,16.95
2017-12-28T05:55:15.622Z,20.42
2017-12-28T05:57:43.290Z,18.73
2017-12-28T06:00:10.909Z,20.15
2017-12-28T06:02:38.556Z,21.90
2017-12-28T06:05:06.206Z,22.37
2017-12-28T06:07:33.837Z,21.45
2017-12-28T06:10:01.503Z,21.95
2017-12-28T06:12:29.129Z,23.23
2017-12-28T06:14:57.757Z,24.58
2017-12-28T06:17:25.381Z,19.45
2017-12-28T06:19:53.013Z,15.50
2017-12-28T06:22:20.677Z,24.20
2017-12-28T06:24:48.300Z,18.70
2017-12-28T06:27:15.956Z,17.83
2017-12-28T06:29:44.555Z,18.50
2017-12-28T06:32:12.195Z,18.65
2017-12-28T06:34:39.841Z,17.77
2017-12-28T06:37:08.276Z,17.20
2017-12-28T06:39:36.098Z,20.73
2017-12-28T06:42:03.817Z,15.93
2017-12-28T06:44:31.441Z,27.27
2017-12-28T06:46:59.103Z,28.55
2017-12-28T06:49:26.768Z,27.20
2017-12-28T06:51:54.436Z,18.45
2017-12-28T06:54:23.331Z,26.02
2017-12-28T06:56:51.006Z,24.60
2017-12-28T06:59:18.653Z,30.50
2017-12-28T07:01:46.282Z,31.77
2017-12-28T07:04:13.974Z,35.35
2017-12-28T07:06:41.605Z,27.95
2017-12-28T07:09:09.222Z,24.77
2017-12-28T07:11:37.126Z,33.55
2017-12-28T07:14:04.806Z,40.90
2017-12-28T07:16:32.428Z,24.05
2017-12-28T07:19:00.069Z,34.55
2017-12-28T07:21:28.224Z,36.33
2017-12-28T07:23:55.885Z,39.00
2017-12-28T07:26:23.569Z,45.78
2017-12-28T07:28:51.236Z,37.83
2017-12-28T07:31:18.862Z,41.28
2017-12-28T07:33:46.717Z,42.00
2017-12-28T07:36:14.388Z,38.85
2017-12-28T07:38:42.022Z,29.17
2017-12-28T07:41:09.683Z,39.97
2017-12-28T07:43:37.301Z,44.47
2017-12-28T07:46:04.936Z,42.85
2017-12-28T07:48:32.594Z,41.70
2017-12-28T07:51:00.217Z,40.80
2017-12-28T07:53:28.642Z,38.85
2017-12-28T07:55:56.284Z,36.60
2017-12-28T07:58:23.901Z,41.58
2017-12-28T08:00:51.569Z,45.22
2017-12-28T08:03:19.207Z,36.83
2017-12-28T08:05:47.197Z,41.17
2017-12-28T08:08:14.829Z,42.35
2017-12-28T08:10:42.456Z,46.50
2017-12-28T08:13:10.121Z,43.38
2017-12-28T08:15:37.799Z,43.65
2017-12-28T08:18:06.291Z,44.22
2017-12-28T08:20:33.905Z,50.50
2017-12-28T08:23:02.304Z,63.95
2017-12-28T08:25:29.971Z,53.85
2017-12-28T08:27:57.697Z,54.35
2017-12-28T08:30:25.447Z,49.22
2017-12-28T08:32:53.115Z,54.63
2017-12-28T08:35:20.744Z,47.08
2017-12-28T08:37:48.405Z,48.00
2017-12-28T08:40:16.098Z,51.40
2017-12-28T08:42:43.850Z,44.75
2017-12-28T08:45:11.492Z,50.65
2017-12-28T08:47:39.128Z,32.28
2017-12-28T08:50:06.994Z,42.28
2017-12-28T08:52:35.381Z,38.22
2017-12-28T08:55:03.034Z,45.70
2017-12-28T08:57:30.693Z,36.70
2017-12-28T08:59:58.329Z,30.50
2017-12-28T09:02:25.997Z,25.55
2017-12-28T09:04:54.545Z,34.80
2017-12-28T09:07:22.211Z,23.77
2017-12-28T09:09:49.826Z,23.40
2017-12-28T09:12:17.478Z,29.27
2017-12-28T09:14:45.147Z,18.67
2017-12-28T09:17:13.521Z,23.08
2017-12-28T09:19:41.184Z,19.12
2017-12-28T09:22:08.808Z,25.85
2017-12-28T09:24:36.538Z,33.63
2017-12-28T09:27:04.204Z,37.33
2017-12-28T09:29:31.864Z,41.40
2017-12-28T09:31:59.537Z,33.22
2017-12-28T09:34:27.196Z,32.67
2017-12-28T09:36:55.614Z,38.80
2017-12-28T09:39:23.261Z,29.55
2017-12-28T09:41:50.895Z,38.75
2017-12-28T09:44:18.573Z,28.35
2017-12-28T09:46:46.225Z,39.83
2017-12-28T09:49:13.875Z,43.55
2017-12-28T09:51:41.533Z,30.02
2017-12-28T09:54:09.207Z,31.73
2017-12-28T09:56:37.058Z,25.27
2017-12-28T09:59:04.693Z,21.83
2017-12-28T10:01:33.096Z,18.75
2017-12-28T10:04:01.562Z,21.02
2017-12-28T10:06:30.027Z,19.25
2017-12-28T10:08:57.721Z,21.67
2017-12-28T10:11:26.225Z,19.75
2017-12-28T10:13:53.841Z,25.33
2017-12-28T10:16:22.266Z,18.60
2017-12-28T10:18:49.937Z,24.70
2017-12-28T10:21:18.368Z,19.33
2017-12-28T10:23:46.226Z,20.10
2017-12-28T10:26:13.861Z,17.73
2017-12-28T10:28:41.659Z,20.77
2017-12-28T10:31:10.063Z,20.12
2017-12-28T10:33:37.869Z,22.90
2017-12-28T10:36:06.270Z,16.80
2017-12-28T10:38:33.895Z,16.17
2017-12-28T10:41:01.725Z,11.63
2017-12-28T10:43:29.352Z,19.70
2017-12-28T10:45:57.121Z,24.85
2017-12-28T10:48:24.740Z,20.55
2017-12-28T10:50:52.374Z,16.20
2017-12-28T10:53:20.031Z,24.60
2017-12-28T10:55:47.754Z,22.77
2017-12-28T10:58:15.427Z,16.17
2017-12-28T11:00:43.050Z,20.83
2017-12-28T11:03:10.659Z,14.65
2017-12-28T11:05:38.319Z,19.05
2017-12-28T11:08:05.937Z,22.10
2017-12-28T11:10:33.717Z,18.95
2017-12-28T11:13:01.349Z,18.98
2017-12-28T11:15:28.964Z,17.27
2017-12-28T11:17:56.708Z,21.77
2017-12-28T11:20:24.365Z,18.42
2017-12-28T11:22:52.029Z,16.50
2017-12-28T11:25:19.654Z,18.17
2017-12-28T11:27:47.283Z,19.10
2017-12-28T11:30:14.956Z,14.73
2017-12-28T11:32:42.586Z,18.42
2017-12-28T11:35:10.253Z,18.37
2017-12-28T11:37:38.067Z,17.30
2017-12-28T11:40:05.682Z,17.45
2017-12-28T11:42:34.106Z,21.20
2017-12-28T11:45:01.726Z,16.37
2017-12-28T11:47:29.385Z,22.37
2017-12-28T11:49:57.168Z,25.05
2017-12-28T11:52:30.389Z,21.20
2017-12-28T11:55:03.888Z,21.75
2017-12-28T11:57:31.570Z,21.48
2017-12-28T12:00:04.819Z,21.42
2017-12-28T12:05:28.830Z,19.00
2017-12-28T12:08:11.342Z,23.30
2017-12-28T12:10:44.742Z,15.40
2017-12-28T12:13:12.401Z,19.55
2017-12-28T12:15:40.040Z,18.05
2017-12-28T12:18:07.710Z,17.40
2017-12-28T12:20:35.437Z,15.20
2017-12-28T12:23:03.044Z,17.20
2017-12-28T12:25:31.478Z,17.40
2017-12-28T12:27:59.086Z,18.10
2017-12-28T12:30:26.794Z,15.07
2017-12-28T12:32:54.480Z,12.50
2017-12-28T12:35:22.097Z,10.55
2017-12-28T12:37:50.529Z,13.60
2017-12-28T12:40:18.266Z,16.42
2017-12-28T12:42:45.880Z,15.48
2017-12-28T12:45:13.529Z,12.70
2017-12-28T12:47:41.237Z,12.80
2017-12-28T12:50:09.665Z,15.07
2017-12-28T12:52:37.287Z,13.30
2017-12-28T12:55:04.914Z,11.63
2017-12-28T12:57:32.562Z,20.12
2017-12-28T13:00:00.199Z,16.25
2017-12-28T13:02:28.646Z,15.18
2017-12-28T13:04:56.257Z,11.88
2017-12-28T13:07:23.868Z,10.93
2017-12-28T13:09:51.560Z,15.20
2017-12-28T13:12:19.203Z,11.43
2017-12-28T13:14:47.037Z,12.60
2017-12-28T13:17:14.670Z,11.02
2017-12-28T13:19:42.290Z,13.32
2017-12-28T13:22:11.329Z,15.65
2017-12-28T13:24:38.961Z,13.10
2017-12-28T13:27:06.714Z,11.18
2017-12-28T13:29:34.356Z,9.60
2017-12-28T13:32:01.970Z,11.45
2017-12-28T13:34:29.713Z,11.68
2017-12-28T13:36:58.225Z,8.07
2017-12-28T13:39:25.882Z,12.43
2017-12-28T13:41:54.341Z,10.98
2017-12-28T13:44:21.965Z,8.93
2017-12-28T13:46:49.601Z,7.37
2017-12-28T13:49:17.220Z,12.45
2017-12-28T13:51:45.633Z,12.00
2017-12-28T13:54:13.237Z,13.02
2017-12-28T13:56:41.614Z,7.47
2017-12-28T13:59:09.329Z,10.65
2017-12-28T14:01:37.137Z,8.63
2017-12-28T14:04:04.802Z,9.77
2017-12-28T14:06:32.415Z,11.38
2017-12-28T14:09:00.053Z,7.70
2017-12-28T14:11:28.218Z,11.95
2017-12-28T14:13:55.875Z,15.35
2017-12-28T14:16:23.502Z,8.90
2017-12-28T14:18:51.174Z,14.80
2017-12-28T14:21:18.841Z,9.60
2017-12-28T14:23:46.704Z,8.98
2017-12-28T14:26:14.326Z,13.90
2017-12-28T14:28:41.974Z,11.40
2017-12-28T14:31:09.623Z,10.10
2017-12-28T14:33:37.833Z,12.13
2017-12-28T14:36:05.782Z,10.30
2017-12-28T14:38:33.441Z,14.65
2017-12-28T14:41:01.865Z,20.52
2017-12-28T14:43:29.482Z,9.18
2017-12-28T14:45:57.115Z,13.57
2017-12-28T14:48:24.829Z,13.50
2017-12-28T14:50:53.268Z,16.37
2017-12-28T14:53:21.025Z,13.05
2017-12-28T14:55:48.662Z,18.35
2017-12-28T14:58:16.276Z,13.10
2017-12-28T15:00:43.932Z,12.00
2017-12-28T15:03:11.542Z,10.88
2017-12-28T15:05:40.443Z,15.48
2017-12-28T15:08:08.131Z,14.85
2017-12-28T15:10:35.777Z,11.18
2017-12-28T15:13:03.549Z,8.55
2017-12-28T15:15:31.189Z,14.93
2017-12-28T15:17:58.850Z,13.85
2017-12-28T15:20:27.232Z,13.38
2017-12-28T15:22:54.915Z,10.05
2017-12-28T15:25:22.569Z,12.00
2017-12-28T15:27:50.187Z,11.60
2017-12-28T15:30:17.970Z,7.50
2017-12-28T15:32:45.608Z,15.40
2017-12-28T15:35:13.237Z,12.63
2017-12-28T15:37:40.873Z,15.18
2017-12-28T15:40:08.576Z,15.13
2017-12-28T15:42:36.241Z,12.35
2017-12-28T15:45:04.018Z,10.85
2017-12-28T15:47:31.637Z,8.93
2017-12-28T15:50:00.079Z,22.37
2017-12-28T15:52:27.702Z,13.52
2017-12-28T15:54:55.353Z,14.63
2017-12-28T15:57:24.368Z,18.12
2017-12-28T15:59:53.653Z,16.05
2017-12-28T16:02:21.324Z,21.98
2017-12-28T16:04:48.949Z,9.65
2017-12-28T17:23:13.762Z,10.48
2017-12-28T17:25:43.061Z,7.00
2017-12-28T17:28:12.065Z,11.10
2017-12-28T17:30:40.537Z,10.18
2017-12-28T17:33:08.150Z,12.82
2017-12-28T17:35:39.474Z,8.25
2017-12-28T17:38:07.869Z,7.68
2017-12-28T17:40:35.692Z,9.18
2017-12-28T17:43:04.150Z,11.82
2017-12-28T17:45:33.726Z,10.50
2017-12-28T17:48:01.389Z,9.93
2017-12-28T17:50:29.060Z,7.97
2017-12-28T17:52:56.708Z,10.70
2017-12-28T17:55:26.109Z,12.45
2017-12-28T17:57:53.785Z,10.30
2017-12-28T18:00:21.447Z,14.15
2017-12-28T18:02:49.074Z,13.07
2017-12-28T18:05:21.414Z,8.70
2017-12-28T18:07:49.033Z,13.90
2017-12-28T18:10:18.388Z,16.92
2017-12-28T18:12:46.095Z,10.85
2017-12-28T18:15:13.715Z,15.20
2017-12-28T18:17:41.352Z,13.10
2017-12-28T18:20:09.003Z,9.35
2017-12-28T18:22:39.717Z,15.98
2017-12-28T18:25:07.365Z,13.93
2017-12-28T18:27:35.917Z,9.18
2017-12-28T18:30:03.742Z,10.98
2017-12-28T18:32:32.277Z,13.88
2017-12-28T18:35:01.972Z,12.65
2017-12-28T18:37:31.208Z,11.88
2017-12-28T18:40:00.402Z,9.77
2017-12-28T18:42:28.039Z,11.40
2017-12-28T18:44:57.479Z,12.40
2017-12-28T18:47:25.181Z,13.68
2017-12-28T18:49:52.798Z,6.87
2017-12-28T18:52:20.452Z,13.38
2017-12-28T18:54:48.069Z,7.43
2017-12-28T18:57:17.132Z,9.00
2017-12-28T18:59:44.867Z,8.50
2017-12-28T19:02:12.592Z,8.52
2017-12-28T19:04:40.263Z,5.93
2017-12-28T19:07:10.090Z,13.80
2017-12-28T19:09:42.040Z,10.00
2017-12-28T19:12:11.193Z,8.63
2017-12-28T19:14:40.390Z,11.20
2017-12-28T19:17:08.054Z,10.55
2017-12-28T19:19:35.694Z,5.25
2017-12-28T19:22:03.380Z,8.32
2017-12-28T19:24:31.169Z,10.88
2017-12-28T19:26:59.575Z,6.80
2017-12-28T19:29:27.310Z,9.40
2017-12-28T19:31:55.509Z,7.93
2017-12-28T19:34:23.125Z,13.52
2017-12-28T19:36:50.833Z,7.07
2017-12-28T19:39:18.517Z,7.55
2017-12-28T19:41:46.280Z,9.63
2017-12-28T19:44:14.078Z,11.40
2017-12-28T19:46:41.829Z,6.25
2017-12-28T19:49:09.576Z,10.30
2017-12-28T19:51:37.211Z,12.18
2017-12-28T19:54:05.722Z,8.68
2017-12-28T19:56:33.346Z,7.68
2017-12-28T19:59:00.983Z,8.85
2017-12-28T20:01:28.675Z,12.68
2017-12-28T20:03:56.357Z,7.25
2017-12-28T20:06:24.944Z,5.70
2017-12-28T20:08:53.457Z,7.60
2017-12-28T20:11:21.138Z,10.20
2017-12-28T20:13:49.882Z,8.68
2017-12-28T20:16:18.391Z,9.00
2017-12-28T20:18:46.866Z,9.13
2017-12-28T20:21:14.704Z,10.18
2017-12-28T20:23:42.974Z,7.32
2017-12-28T20:26:10.721Z,19.40
2017-12-28T20:28:39.151Z,9.43
2017-12-28T20:31:06.851Z,8.77
2017-12-28T20:33:34.702Z,9.75
2017-12-28T20:36:02.399Z,12.82
2017-12-28T20:38:30.989Z,9.52
2017-12-28T20:40:59.377Z,11.20
2017-12-28T20:43:27.207Z,8.43
2017-12-28T20:45:56.156Z,9.38
2017-12-28T20:48:23.824Z,7.32
2017-12-28T20:50:51.595Z,10.10
2017-12-28T20:53:19.997Z,15.02
2017-12-28T20:55:47.945Z,8.70
2017-12-28T20:58:15.637Z,10.35
2017-12-28T21:00:44.149Z,9.30
2017-12-28T21:03:11.838Z,8.75
2017-12-28T21:05:39.545Z,9.50
2017-12-28T21:08:07.328Z,8.60
2017-12-28T21:10:36.001Z,7.80
2017-12-28T21:13:03.680Z,7.22
2017-12-28T21:15:33.235Z,14.32
2017-12-28T21:18:00.980Z,11.35
2017-12-28T21:20:28.669Z,9.32
2017-12-28T21:22:57.283Z,8.13
2017-12-28T21:25:25.072Z,6.90
2017-12-28T21:27:52.722Z,9.65
2017-12-28T21:30:20.370Z,8.70
2017-12-28T21:32:48.026Z,11.82
2017-12-28T21:35:16.409Z,8.68
2017-12-28T21:37:44.153Z,6.30
2017-12-28T21:40:12.607Z,7.60
2017-12-28T21:42:40.267Z,11.10
2017-12-28T21:45:08.021Z,10.68
2017-12-28T21:47:35.933Z,10.05
2017-12-28T21:50:04.511Z,7.65
2017-12-28T21:52:33.015Z,12.00
2017-12-28T21:55:00.959Z,14.60
2017-12-28T21:57:28.786Z,9.25
2017-12-28T21:59:57.208Z,10.52
2017-12-28T22:02:25.042Z,6.72
2017-12-28T22:04:52.795Z,10.10
2017-12-28T22:07:20.586Z,15.25
2017-12-28T22:09:48.245Z,14.70
2017-12-28T22:12:16.294Z,12.18
2017-12-28T22:14:44.419Z,8.15
2017-12-28T22:17:12.158Z,12.30
2017-12-28T22:19:39.859Z,7.07
2017-12-28T22:22:08.931Z,9.02
2017-12-28T22:24:36.647Z,12.13
2017-12-28T22:27:04.453Z,11.30
2017-12-28T22:29:33.611Z,9.85
2017-12-28T22:32:01.248Z,13.10
2017-12-28T22:34:28.959Z,7.45
2017-12-28T22:36:57.541Z,7.20
2017-12-28T22:39:25.200Z,16.65
2017-12-28T22:41:52.861Z,10.52
2017-12-28T22:44:20.682Z,9.10
2017-12-28T22:46:49.293Z,8.80
2017-12-28T22:49:16.976Z,11.95
2017-12-28T22:51:44.726Z,11.02
2017-12-28T22:54:13.622Z,9.48
2017-12-28T22:56:41.236Z,8.25
2017-12-28T22:59:08.897Z,12.52
2017-12-28T23:01:36.515Z,10.00
2017-12-28T23:04:05.132Z,9.05
2017-12-28T23:06:32.753Z,9.50
2017-12-28T23:09:00.377Z,7.70
2017-12-28T23:11:28.789Z,8.40
2017-12-28T23:13:56.406Z,8.38
2017-12-28T23:16:24.141Z,11.23
2017-12-28T23:18:51.789Z,8.95
2017-12-28T23:21:20.173Z,9.60
2017-12-28T23:23:47.816Z,6.72
2017-12-28T23:26:16.041Z,6.30
2017-12-28T23:28:44.035Z,8.13
2017-12-28T23:31:12.521Z,6.87
2017-12-28T23:33:40.133Z,13.48
2017-12-28T23:36:07.782Z,8.02
2017-12-28T23:38:35.656Z,9.57
2017-12-28T23:41:03.272Z,8.60
2017-12-28T23:43:31.676Z,8.40
2017-12-28T23:45:59.285Z,9.57
2017-12-28T23:48:27.701Z,15.95
2017-12-28T23:50:55.317Z,9.10
2017-12-28T23:53:22.957Z,8.10
2017-12-28T23:55:50.592Z,11.65
2017-12-28T23:58:18.202Z,6.00
